Time,TemperatureF,DewpointF,PressureIn,WindDirection,WindDirectionDegrees,WindSpeedMPH,WindSpeedGustMPH,Humidity,HourlyPrecipIn,Conditions,Clouds,dailyrainin,SolarRadiationWatts/m^2,SoftwareType,DateUTC
2013-06-19 00:00:00,79.9,78.1,29.89,SSW,206,3.3,7.7,94,0.00,,,1.05,0.00,VWS V14.01,2013-06-19 04:00:00,
2013-06-19 00:01:00,79.9,78.1,29.89,ESE,123,4.4,4.4,94,0.00,,,0.00,0.00,VWS V14.01,2013-06-19 04:01:00,
2013-06-19 00:06:00,80.1,77.8,29.89,SSE,158,0.0,1.1,93,0.00,,,0.00,0.00,VWS V14.01,2013-06-19 04:06:00,
2013-06-19 00:11:00,80.2,77.9,29.89,SSW,199,2.2,2.2,93,0.00,,,0.00,0.00,VWS V14.01,2013-06-19 04:11:00,
2013-06-19 00:16:00,80.2,78.1,29.89,SSE,158,0.0,0.0,93,0.00,,,0.00,0.00,VWS V14.01,2013-06-19 04:16:00,
2013-06-19 00:21:00,80.2,78.1,29.89,SSW,202,0.0,1.1,93,0.00,,,0.00,0.00,VWS V14.01,2013-06-19 04:21:00,
2013-06-19 00:26:00,80.2,78.1,29.89,SSW,204,0.0,0.0,93,0.00,,,0.00,0.00,VWS V14.01,2013-06-19 04:26:00,
2013-06-19 00:31:00,80.2,78.1,29.89,West,263,0.0,0.0,93,0.00,,,0.00,0.00,VWS V14.01,2013-06-19 04:31:00,
2013-06-19 00:36:00,80.2,78.1,29.89,WSW,252,4.4,5.5,93,0.00,,,0.00,0.00,VWS V14.01,2013-06-19 04:36:00,
2013-06-19 00:41:00,80.3,78.1,29.89,SSE,150,1.1,2.2,93,0.00,,,0.00,0.00,VWS V14.01,2013-06-19 04:41:00,
2013-06-19 00:46:00,80.2,78.1,29.89,SSW,209,1.1,1.1,93,0.00,,,0.00,0.00,VWS V14.01,2013-06-19 04:46:00,
2013-06-19 00:51:00,80.2,78.1,29.89,South,171,0.0,2.2,93,0.00,,,0.00,0.00,VWS V14.01,2013-06-19 04:51:00,
2013-06-19 00:56:00,80.3,78.1,29.89,SW,236,4.4,4.4,93,0.00,,,0.00,0.00,VWS V14.01,2013-06-19 04:56:00,
2013-06-19 01:01:00,80.3,78.1,29.88,SE,137,3.3,4.4,93,0.00,,,0.00,0.00,VWS V14.01,2013-06-19 05:01:00,
2013-06-19 01:06:00,80.3,78.1,29.88,SSW,202,2.2,3.3,93,0.00,,,0.00,0.00,VWS V14.01,2013-06-19 05:06:00,
2013-06-19 01:11:00,80.3,78.1,29.88,SSW,203,3.3,3.3,93,0.00,,,0.00,0.00,VWS V14.01,2013-06-19 05:11:00,
2013-06-19 01:16:00,80.3,78.1,29.88,South,174,1.1,4.4,93,0.00,,,0.00,0.00,VWS V14.01,2013-06-19 05:16:00,
2013-06-19 01:21:00,80.4,78.2,29.88,South,180,0.0,0.0,93,0.00,,,0.00,0.00,VWS V14.01,2013-06-19 05:21:00,
2013-06-19 01:26:00,80.4,78.2,29.88,SE,124,0.0,1.1,93,0.00,,,0.00,0.00,VWS V14.01,2013-06-19 05:26:00,
2013-06-19 01:31:00,80.4,78.2,29.88,ESE,122,4.4,4.4,93,0.00,,,0.00,0.00,VWS V14.01,2013-06-19 05:31:00,
2013-06-19 01:36:00,80.4,78.2,29.88,South,184,3.3,5.5,93,0.00,,,0.00,0.00,VWS V14.01,2013-06-19 05:36:00,
2013-06-19 01:41:00,80.4,78.2,29.88,SSW,206,1.1,1.1,93,0.00,,,0.00,0.00,VWS V14.01,2013-06-19 05:41:00,
2013-06-19 01:46:00,80.4,78.2,29.88,SW,225,0.0,1.1,93,0.00,,,0.00,0.00,VWS V14.01,2013-06-19 05:46:00,
2013-06-19 01:51:00,80.6,78.3,29.88,SSW,195,3.3,6.6,93,0.00,,,0.00,0.00,VWS V14.01,2013-06-19 05:51:00,
2013-06-19 01:56:00,80.6,78.3,29.88,SSW,193,0.0,0.0,93,0.00,,,0.00,0.00,VWS V14.01,2013-06-19 05:56:00,
2013-06-19 02:01:00,80.4,78.2,29.88,SSW,194,1.1,1.1,93,0.00,,,0.00,0.00,VWS V14.01,2013-06-19 06:01:00,
2013-06-19 02:06:00,80.4,78.2,29.88,South,175,1.1,1.1,93,0.00,,,0.00,0.00,VWS V14.01,2013-06-19 06:06:00,
2013-06-19 02:11:00,80.3,78.1,29.88,South,171,0.0,1.1,93,0.00,,,0.00,0.00,VWS V14.01,2013-06-19 06:11:00,
2013-06-19 02:16:00,80.3,78.1,29.88,SSW,193,2.2,4.4,93,0.00,,,0.00,0.00,VWS V14.01,2013-06-19 06:16:00,
2013-06-19 02:21:00,80.3,78.1,29.88,South,191,2.2,3.3,93,0.00,,,0.00,0.00,VWS V14.01,2013-06-19 06:21:00,
2013-06-19 02:26:00,80.3,78.1,29.88,SSE,158,0.0,0.0,93,0.00,,,0.00,0.00,VWS V14.01,2013-06-19 06:26:00,
2013-06-19 02:31:00,80.3,78.1,29.88,South,169,5.5,5.5,93,0.00,,,0.00,0.00,VWS V14.01,2013-06-19 06:31:00,
2013-06-19 02:36:00,80.3,78.1,29.88,SSE,156,2.2,5.5,93,0.00,,,0.00,0.00,VWS V14.01,2013-06-19 06:36:00,
2013-06-19 02:41:00,80.2,78.1,29.88,SSW,201,0.0,0.0,93,0.00,,,0.00,0.00,VWS V14.01,2013-06-19 06:41:00,
2013-06-19 02:46:00,80.2,78.1,29.88,WSW,252,0.0,1.1,93,0.00,,,0.00,0.00,VWS V14.01,2013-06-19 06:46:00,
2013-06-19 02:51:00,80.2,77.9,29.88,South,181,0.0,0.0,93,0.00,,,0.00,0.00,VWS V14.01,2013-06-19 06:51:00,
2013-06-19 02:56:00,79.9,77.8,29.88,WSW,237,0.0,0.0,93,0.00,,,0.00,0.00,VWS V14.01,2013-06-19 06:56:00,
2013-06-19 03:01:00,79.9,77.8,29.88,SSW,207,2.2,3.3,93,0.00,,,0.00,0.00,VWS V14.01,2013-06-19 07:01:00,
2013-06-19 03:06:00,79.8,77.6,29.88,SW,231,0.0,0.0,93,0.00,,,0.00,0.00,VWS V14.01,2013-06-19 07:06:00,
2013-06-19 03:11:00,79.6,77.3,29.88,South,182,0.0,0.0,93,0.00,,,0.00,0.00,VWS V14.01,2013-06-19 07:11:00,
2013-06-19 03:16:00,79.3,77.2,29.88,SW,219,1.1,1.1,93,0.00,,,0.00,0.00,VWS V14.01,2013-06-19 07:16:00,
2013-06-19 03:21:00,79.3,77.2,29.88,SSW,200,0.0,0.0,93,0.00,,,0.00,0.00,VWS V14.01,2013-06-19 07:21:00,
2013-06-19 03:26:00,79.2,77.1,29.88,South,191,0.0,1.1,93,0.00,,,0.00,0.00,VWS V14.01,2013-06-19 07:26:00,
2013-06-19 03:31:00,79.2,77.0,29.89,SW,235,0.0,2.2,93,0.00,,,0.00,0.00,VWS V14.01,2013-06-19 07:31:00,
2013-06-19 03:36:00,79.2,77.0,29.88,SSW,206,0.0,1.1,93,0.00,,,0.00,0.00,VWS V14.01,2013-06-19 07:36:00,
2013-06-19 03:41:00,79.2,76.7,29.89,SSW,195,2.2,2.2,92,0.00,,,0.00,0.00,VWS V14.01,2013-06-19 07:41:00,
2013-06-19 03:46:00,79.2,76.6,29.89,SSE,168,4.4,4.4,92,0.00,,,0.00,0.00,VWS V14.01,2013-06-19 07:46:00,
2013-06-19 03:51:00,79.1,76.5,29.89,South,181,0.0,0.0,92,0.00,,,0.00,0.00,VWS V14.01,2013-06-19 07:51:00,
2013-06-19 03:56:00,79.1,76.5,29.89,SSW,201,1.1,3.3,92,0.00,,,0.00,0.00,VWS V14.01,2013-06-19 07:56:00,
2013-06-19 04:01:00,78.9,76.1,29.89,South,180,0.0,4.4,91,0.00,,,0.00,0.00,VWS V14.01,2013-06-19 08:01:00,
2013-06-19 04:06:00,78.9,76.1,29.89,South,177,0.0,0.0,91,0.00,,,0.00,0.00,VWS V14.01,2013-06-19 08:06:00,
2013-06-19 04:11:00,78.8,75.9,29.89,SSW,211,0.0,1.1,91,0.00,,,0.00,0.00,VWS V14.01,2013-06-19 08:11:00,
2013-06-19 04:16:00,78.7,75.8,29.88,SSW,210,0.0,1.1,91,0.00,,,0.00,0.00,VWS V14.01,2013-06-19 08:16:00,
2013-06-19 04:21:00,78.6,75.7,29.88,SW,225,2.2,3.3,91,0.00,,,0.00,0.00,VWS V14.01,2013-06-19 08:21:00,
2013-06-19 04:26:00,78.4,75.6,29.89,SSW,202,1.1,2.2,91,0.00,,,0.00,0.00,VWS V14.01,2013-06-19 08:26:00,
2013-06-19 04:31:00,78.3,75.5,29.88,SSE,166,0.0,1.1,91,0.00,,,0.00,0.00,VWS V14.01,2013-06-19 08:31:00,
2013-06-19 04:36:00,78.2,75.4,29.89,SSW,200,0.0,2.2,91,0.00,,,0.00,0.00,VWS V14.01,2013-06-19 08:36:00,
2013-06-19 04:41:00,78.2,75.4,29.89,SW,229,0.0,0.0,91,0.00,,,0.00,0.00,VWS V14.01,2013-06-19 08:41:00,
2013-06-19 04:46:00,78.2,75.4,29.89,SSW,193,0.0,1.1,91,0.00,,,0.00,0.00,VWS V14.01,2013-06-19 08:46:00,
2013-06-19 04:51:00,78.2,75.3,29.89,SSW,197,1.1,1.1,91,0.00,,,0.00,0.00,VWS V14.01,2013-06-19 08:51:00,
2013-06-19 04:56:00,78.1,75.2,29.89,ENE,73,0.0,1.1,91,0.00,,,0.00,0.00,VWS V14.01,2013-06-19 08:56:00,
2013-06-19 05:00:00,78.1,75.2,29.89,South,179,0.0,2.2,91,0.00,,,0.00,0.00,VWS V14.01,2013-06-19 09:00:00,
2013-06-19 05:05:00,78.1,75.2,29.89,SSW,201,0.0,2.2,91,0.00,,,0.00,0.00,VWS V14.01,2013-06-19 09:05:00,
2013-06-19 05:10:00,78.1,75.2,29.89,SSW,200,0.0,1.1,91,0.00,,,0.00,0.00,VWS V14.01,2013-06-19 09:10:00,
2013-06-19 05:15:00,77.9,75.1,29.89,SSW,202,1.1,1.1,91,0.00,,,0.00,0.00,VWS V14.01,2013-06-19 09:15:00,
2013-06-19 05:20:00,77.8,75.0,29.89,SSW,198,1.1,1.1,91,0.00,,,0.00,0.00,VWS V14.01,2013-06-19 09:20:00,
2013-06-19 05:25:00,77.8,75.0,29.89,SSW,208,0.0,2.2,91,0.00,,,0.00,0.00,VWS V14.01,2013-06-19 09:25:00,
2013-06-19 05:30:00,77.8,74.9,29.90,South,188,4.4,4.4,91,0.00,,,0.00,0.00,VWS V14.01,2013-06-19 09:30:00,
2013-06-19 05:35:00,77.7,74.8,29.90,SSE,163,0.0,0.0,91,0.00,,,0.00,0.00,VWS V14.01,2013-06-19 09:35:00,
2013-06-19 05:40:00,77.7,74.8,29.90,SSW,212,1.1,2.2,91,0.00,,,0.00,0.00,VWS V14.01,2013-06-19 09:40:00,
2013-06-19 05:45:00,77.7,74.8,29.90,SSW,206,0.0,0.0,91,0.00,,,0.00,0.00,VWS V14.01,2013-06-19 09:45:00,
2013-06-19 05:50:00,77.7,74.8,29.90,SSW,206,0.0,0.0,91,0.00,,,0.00,0.00,VWS V14.01,2013-06-19 09:50:00,
2013-06-19 05:55:00,77.7,74.8,29.90,WNW,283,1.1,4.4,91,0.00,,,0.00,0.00,VWS V14.01,2013-06-19 09:55:00,
2013-06-19 06:00:00,77.6,74.7,29.90,SW,230,0.0,1.1,91,0.00,,,0.00,0.00,VWS V14.01,2013-06-19 10:00:00,
2013-06-19 06:05:00,77.6,74.7,29.90,SW,230,0.0,0.0,91,0.00,,,0.00,0.00,VWS V14.01,2013-06-19 10:05:00,
2013-06-19 06:10:00,77.6,74.7,29.90,SW,230,0.0,0.0,91,0.00,,,0.00,0.00,VWS V14.01,2013-06-19 10:10:00,
2013-06-19 06:15:00,77.6,74.7,29.90,SSW,210,2.2,5.5,91,0.00,,,0.00,0.00,VWS V14.01,2013-06-19 10:15:00,
2013-06-19 06:20:00,77.4,74.6,29.90,SW,231,0.0,1.1,91,0.00,,,0.00,0.00,VWS V14.01,2013-06-19 10:20:00,
2013-06-19 06:25:00,77.4,74.6,29.91,WSW,237,0.0,2.2,91,0.00,,,0.00,5.00,VWS V14.01,2013-06-19 10:25:00,
2013-06-19 06:30:00,77.3,74.5,29.91,South,189,1.1,1.1,91,0.00,,,0.00,7.00,VWS V14.01,2013-06-19 10:30:00,
2013-06-19 06:35:00,77.2,74.4,29.91,SW,217,0.0,1.1,91,0.00,,,0.00,7.00,VWS V14.01,2013-06-19 10:35:00,
2013-06-19 06:40:00,77.2,74.3,29.91,SSW,202,0.0,0.0,91,0.00,,,0.00,7.00,VWS V14.01,2013-06-19 10:40:00,
2013-06-19 06:45:00,77.1,74.6,29.91,SSW,202,0.0,0.0,92,0.00,,,0.00,9.00,VWS V14.01,2013-06-19 10:45:00,
2013-06-19 06:50:00,76.8,74.3,29.91,NNW,348,0.0,0.0,92,0.00,,,0.00,12.00,VWS V14.01,2013-06-19 10:50:00,
2013-06-19 06:55:00,76.7,74.5,29.91,NE,39,0.0,0.0,93,0.00,,,0.00,19.00,VWS V14.01,2013-06-19 10:55:00,
2013-06-19 07:00:00,76.6,74.4,29.91,West,272,0.0,0.0,93,0.00,,,0.00,30.00,VWS V14.01,2013-06-19 11:00:00,
2013-06-19 07:05:00,76.7,74.5,29.92,SSW,202,3.3,5.5,93,0.00,,,0.00,37.00,VWS V14.01,2013-06-19 11:05:00,
2013-06-19 07:10:00,76.9,74.8,29.92,West,267,1.1,3.3,93,0.00,,,0.00,40.00,VWS V14.01,2013-06-19 11:10:00,
2013-06-19 07:15:00,77.2,75.0,29.92,West,267,0.0,0.0,93,0.00,,,0.00,42.00,VWS V14.01,2013-06-19 11:15:00,
2013-06-19 07:20:00,77.2,74.8,29.92,SSW,209,0.0,2.2,92,0.00,,,0.00,44.00,VWS V14.01,2013-06-19 11:20:00,
2013-06-19 07:25:00,77.3,74.8,29.92,SSW,208,0.0,1.1,92,0.00,,,0.00,47.00,VWS V14.01,2013-06-19 11:25:00,
2013-06-19 07:30:00,77.4,74.6,29.92,SW,214,0.0,0.0,91,0.00,,,0.00,54.00,VWS V14.01,2013-06-19 11:30:00,
2013-06-19 07:35:00,77.7,74.8,29.92,SSW,196,0.0,3.3,91,0.00,,,0.00,54.00,VWS V14.01,2013-06-19 11:35:00,
2013-06-19 07:40:00,77.8,74.9,29.93,WSW,241,0.0,0.0,91,0.00,,,0.00,51.00,VWS V14.01,2013-06-19 11:40:00,
2013-06-19 07:45:00,77.8,74.9,29.93,WSW,241,0.0,0.0,91,0.00,,,0.00,63.00,VWS V14.01,2013-06-19 11:45:00,
2013-06-19 07:50:00,77.8,75.0,29.94,SSW,204,0.0,1.1,91,0.00,,,0.00,51.00,VWS V14.01,2013-06-19 11:50:00,
2013-06-19 07:55:00,77.8,74.9,29.94,WSW,238,0.0,0.0,91,0.00,,,0.00,49.00,VWS V14.01,2013-06-19 11:55:00,
2013-06-19 08:00:00,77.8,75.0,29.94,SW,233,1.1,1.1,91,0.00,,,0.00,67.00,VWS V14.01,2013-06-19 12:00:00,
2013-06-19 08:05:00,77.8,75.0,29.94,South,182,2.2,3.3,91,0.00,,,0.00,54.00,VWS V14.01,2013-06-19 12:05:00,
2013-06-19 08:10:00,77.9,75.1,29.94,SW,216,0.0,5.5,91,0.00,,,0.00,104.00,VWS V14.01,2013-06-19 12:10:00,
2013-06-19 08:15:00,78.1,75.2,29.94,South,184,1.1,1.1,91,0.00,,,0.00,93.00,VWS V14.01,2013-06-19 12:15:00,
2013-06-19 08:20:00,78.3,75.2,29.95,SW,222,0.0,2.2,90,0.00,,,0.00,86.00,VWS V14.01,2013-06-19 12:20:00,
2013-06-19 08:25:00,78.4,75.3,29.95,South,189,1.1,4.4,90,0.00,,,0.00,95.00,VWS V14.01,2013-06-19 12:25:00,
2013-06-19 08:30:00,78.7,75.5,29.95,South,177,1.1,1.1,90,0.00,,,0.00,113.00,VWS V14.01,2013-06-19 12:30:00,
2013-06-19 08:35:00,78.8,75.2,29.95,South,172,1.1,4.4,89,0.00,,,0.00,93.00,VWS V14.01,2013-06-19 12:35:00,
2013-06-19 08:40:00,78.8,75.3,29.95,SSE,168,1.1,2.2,89,0.00,,,0.00,149.00,VWS V14.01,2013-06-19 12:40:00,
2013-06-19 08:45:00,79.2,76.1,29.95,South,189,1.1,1.1,90,0.00,,,0.00,156.00,VWS V14.01,2013-06-19 12:45:00,
2013-06-19 08:50:00,79.3,75.5,29.95,West,268,3.3,3.3,88,0.00,,,0.00,142.00,VWS V14.01,2013-06-19 12:50:00,
2013-06-19 08:55:00,79.4,75.6,29.95,SSW,209,1.1,3.3,88,0.00,,,0.00,120.00,VWS V14.01,2013-06-19 12:55:00,
2013-06-19 09:00:00,79.3,75.2,29.95,SSW,206,4.4,4.4,87,0.00,,,0.00,149.00,VWS V14.01,2013-06-19 13:00:00,
2013-06-19 09:05:00,79.6,75.7,29.95,NE,56,0.0,0.0,88,0.00,,,0.00,160.00,VWS V14.01,2013-06-19 13:05:00,
2013-06-19 09:10:00,79.8,75.5,29.95,SSW,200,0.0,1.1,87,0.00,,,0.00,155.00,VWS V14.01,2013-06-19 13:10:00,
2013-06-19 09:15:00,79.8,75.2,29.95,WSW,256,1.1,3.3,86,0.00,,,0.00,160.00,VWS V14.01,2013-06-19 13:15:00,
2013-06-19 09:20:00,79.8,75.6,29.95,SW,227,4.4,7.7,87,0.00,,,0.00,165.00,VWS V14.01,2013-06-19 13:20:00,
2013-06-19 09:25:00,79.8,75.3,29.95,SW,227,0.0,4.4,86,0.00,,,0.00,155.00,VWS V14.01,2013-06-19 13:25:00,
2013-06-19 09:30:00,79.8,75.2,29.95,SSW,204,2.2,2.2,86,0.00,,,0.00,142.00,VWS V14.01,2013-06-19 13:30:00,
2013-06-19 09:35:00,79.8,75.6,29.95,SSW,209,3.3,5.5,87,0.00,,,0.00,134.00,VWS V14.01,2013-06-19 13:35:00,
2013-06-19 09:40:00,80.1,75.5,29.95,SSW,198,0.0,1.1,86,0.00,,,0.00,135.00,VWS V14.01,2013-06-19 13:40:00,
2013-06-19 09:45:00,80.1,75.5,29.95,South,172,2.2,2.2,86,0.00,,,0.00,176.00,VWS V14.01,2013-06-19 13:45:00,
2013-06-19 09:50:00,80.2,75.6,29.95,NW,316,1.1,4.4,86,0.00,,,0.00,172.00,VWS V14.01,2013-06-19 13:50:00,
2013-06-19 09:55:00,80.2,75.7,29.95,South,187,2.2,2.2,86,0.00,,,0.00,178.00,VWS V14.01,2013-06-19 13:55:00,
2013-06-19 10:00:00,80.4,76.2,29.95,NW,314,0.0,2.2,87,0.00,,,0.00,142.00,VWS V14.01,2013-06-19 14:00:00,
2013-06-19 10:05:00,80.2,75.6,29.95,SSW,196,2.2,4.4,86,0.00,,,0.00,128.00,VWS V14.01,2013-06-19 14:05:00,
2013-06-19 10:10:00,80.1,75.5,29.95,SW,223,2.2,3.3,86,0.00,,,0.00,120.00,VWS V14.01,2013-06-19 14:10:00,
2013-06-19 10:15:00,80.3,75.8,29.95,South,174,2.2,2.2,86,0.00,,,0.00,116.00,VWS V14.01,2013-06-19 14:15:00,
2013-06-19 10:20:00,80.8,76.3,29.95,SW,221,1.1,2.2,86,0.00,,,0.00,137.00,VWS V14.01,2013-06-19 14:20:00,
2013-06-19 10:25:00,81.2,76.3,29.94,WSW,242,0.0,0.0,85,0.00,,,0.00,237.00,VWS V14.01,2013-06-19 14:25:00,
2013-06-19 10:30:00,81.9,76.3,29.95,WSW,253,0.0,2.2,83,0.00,,,0.00,306.00,VWS V14.01,2013-06-19 14:30:00,
2013-06-19 10:35:00,82.2,76.2,29.95,NW,316,0.0,2.2,82,0.00,,,0.00,239.00,VWS V14.01,2013-06-19 14:35:00,
2013-06-19 10:40:00,81.8,75.7,29.96,NNW,335,0.0,2.2,82,0.00,,,0.00,174.00,VWS V14.01,2013-06-19 14:40:00,
2013-06-19 10:45:00,81.6,75.5,29.96,SSW,198,2.2,2.2,82,0.00,,,0.00,160.00,VWS V14.01,2013-06-19 14:45:00,
2013-06-19 10:50:00,81.4,75.8,29.96,SW,216,0.0,2.2,83,0.00,,,0.00,162.00,VWS V14.01,2013-06-19 14:50:00,
2013-06-19 10:55:00,81.2,76.0,29.96,NW,320,1.1,3.3,84,0.00,,,0.00,165.00,VWS V14.01,2013-06-19 14:55:00,
2013-06-19 11:00:00,81.2,76.2,29.96,NW,322,2.2,3.3,85,0.00,,,0.00,209.00,VWS V14.01,2013-06-19 15:00:00,
2013-06-19 11:05:00,81.2,75.9,29.96,West,264,1.1,1.1,84,0.00,,,0.00,250.00,VWS V14.01,2013-06-19 15:05:00,
2013-06-19 11:10:00,81.4,76.5,29.96,SSE,148,1.1,1.1,85,0.00,,,0.00,258.00,VWS V14.01,2013-06-19 15:10:00,
2013-06-19 11:15:00,81.8,76.1,29.96,West,274,0.0,1.1,83,0.00,,,0.00,306.00,VWS V14.01,2013-06-19 15:15:00,
2013-06-19 11:20:00,81.9,75.9,29.97,SW,229,0.0,2.2,82,0.00,,,0.00,399.00,VWS V14.01,2013-06-19 15:20:00,
2013-06-19 11:25:00,82.6,76.5,29.96,SSE,151,1.1,2.2,82,0.00,,,0.00,438.00,VWS V14.01,2013-06-19 15:25:00,
2013-06-19 11:30:00,82.8,76.4,29.96,WSW,239,3.3,3.3,81,0.00,,,0.00,394.00,VWS V14.01,2013-06-19 15:30:00,
2013-06-19 11:35:00,82.8,76.1,29.96,SW,225,1.1,4.4,80,0.00,,,0.00,295.00,VWS V14.01,2013-06-19 15:35:00,
2013-06-19 11:40:00,82.8,75.9,29.97,WNW,295,0.0,2.2,80,0.00,,,0.00,490.00,VWS V14.01,2013-06-19 15:40:00,
2013-06-19 11:45:00,83.2,76.4,29.97,SW,215,1.1,1.1,80,0.00,,,0.00,466.00,VWS V14.01,2013-06-19 15:45:00,
2013-06-19 11:50:00,83.4,77.4,29.97,NNE,18,1.1,1.1,82,0.00,,,0.00,336.00,VWS V14.01,2013-06-19 15:50:00,
2013-06-19 11:55:00,83.3,77.7,29.97,NW,325,0.0,0.0,83,0.00,,,0.00,345.00,VWS V14.01,2013-06-19 15:55:00,
2013-06-19 12:00:00,83.2,77.2,29.97,NE,35,2.2,2.2,82,0.00,,,0.00,336.00,VWS V14.01,2013-06-19 16:00:00,
2013-06-19 12:05:00,83.2,77.2,29.97,SW,220,1.1,1.1,82,0.00,,,0.00,454.00,VWS V14.01,2013-06-19 16:05:00,
2013-06-19 12:10:00,83.4,76.3,29.97,SSW,202,0.0,2.2,79,0.00,,,0.00,272.00,VWS V14.01,2013-06-19 16:10:00,
2013-06-19 12:15:00,83.8,77.3,29.97,WNW,297,0.0,3.3,81,0.00,,,0.00,466.00,VWS V14.01,2013-06-19 16:15:00,
2013-06-19 12:20:00,83.2,76.8,29.97,SSW,193,1.1,1.1,81,0.00,,,0.00,279.00,VWS V14.01,2013-06-19 16:20:00,
2013-06-19 12:25:00,83.7,76.8,29.97,WNW,287,5.5,5.5,80,0.00,,,0.00,279.00,VWS V14.01,2013-06-19 16:25:00,
2013-06-19 12:30:00,84.2,76.9,29.97,NNE,26,1.1,1.1,79,0.00,,,0.00,301.00,VWS V14.01,2013-06-19 16:30:00,
2013-06-19 12:35:00,84.4,77.2,29.97,NNW,329,2.2,3.3,79,0.00,,,0.00,965.00,VWS V14.01,2013-06-19 16:35:00,
2013-06-19 12:40:00,84.8,76.8,29.96,West,266,3.3,4.4,77,0.00,,,0.00,937.00,VWS V14.01,2013-06-19 16:40:00,
2013-06-19 12:45:00,85.9,78.3,29.96,NW,317,0.0,3.3,78,0.00,,,0.00,942.00,VWS V14.01,2013-06-19 16:45:00,
2013-06-19 12:50:00,86.2,77.3,29.96,SW,214,3.3,3.3,75,0.00,,,0.00,882.00,VWS V14.01,2013-06-19 16:50:00,
2013-06-19 12:55:00,86.2,76.9,29.95,NW,324,1.1,2.2,74,0.00,,,0.00,902.00,VWS V14.01,2013-06-19 16:55:00,
2013-06-19 13:00:00,84.8,76.1,29.95,SW,216,0.0,0.0,75,0.00,,,0.00,330.00,VWS V14.01,2013-06-19 17:00:00,
2013-06-19 13:05:00,85.4,77.0,29.95,SSW,212,1.1,1.1,76,0.00,,,0.00,946.00,VWS V14.01,2013-06-19 17:05:00,
2013-06-19 13:10:00,85.9,77.1,29.95,SSE,154,3.3,3.3,75,0.00,,,0.00,953.00,VWS V14.01,2013-06-19 17:10:00,
2013-06-19 13:15:00,85.8,76.5,29.95,NW,316,1.1,2.2,74,0.00,,,0.00,965.00,VWS V14.01,2013-06-19 17:15:00,
2013-06-19 13:20:00,85.3,76.1,29.95,NNW,348,0.0,1.1,74,0.00,,,0.00,965.00,VWS V14.01,2013-06-19 17:20:00,
2013-06-19 13:25:00,86.1,77.2,29.95,WNW,283,2.2,2.2,75,0.00,,,0.00,944.00,VWS V14.01,2013-06-19 17:25:00,
2013-06-19 13:30:00,87.2,76.7,29.94,SW,214,0.0,1.1,71,0.00,,,0.00,981.00,VWS V14.01,2013-06-19 17:30:00,
2013-06-19 13:35:00,87.2,77.4,29.94,South,178,5.5,5.5,73,0.00,,,0.00,995.00,VWS V14.01,2013-06-19 17:35:00,
2013-06-19 13:40:00,86.9,75.6,29.94,WNW,302,1.1,1.1,69,0.00,,,0.00,276.00,VWS V14.01,2013-06-19 17:40:00,
2013-06-19 13:45:00,86.2,76.9,29.94,SW,214,0.0,0.0,74,0.00,,,0.00,232.00,VWS V14.01,2013-06-19 17:45:00,
2013-06-19 13:50:00,86.1,77.6,29.93,West,259,1.1,1.1,76,0.00,,,0.00,1004.00,VWS V14.01,2013-06-19 17:50:00,
2013-06-19 13:55:00,86.8,77.1,29.93,SSW,195,2.2,4.4,73,0.00,,,0.00,1009.00,VWS V14.01,2013-06-19 17:55:00,
2013-06-19 14:00:00,88.2,78.1,29.94,SW,216,3.3,3.3,72,0.00,,,0.00,1063.00,VWS V14.01,2013-06-19 18:00:00,
2013-06-19 14:05:00,88.4,77.4,29.93,SSE,158,2.2,5.5,70,0.00,,,0.00,984.00,VWS V14.01,2013-06-19 18:05:00,
2013-06-19 14:10:00,87.8,77.2,29.93,ESE,121,0.0,2.2,71,0.00,,,0.00,253.00,VWS V14.01,2013-06-19 18:10:00,
2013-06-19 14:15:00,86.8,77.6,29.93,West,280,0.0,0.0,74,0.00,,,0.00,338.00,VWS V14.01,2013-06-19 18:15:00,
2013-06-19 14:20:00,86.8,78.0,29.92,North,10,0.0,0.0,75,0.00,,,0.00,378.00,VWS V14.01,2013-06-19 18:20:00,
2013-06-19 14:25:00,87.2,77.1,29.92,ESE,114,0.0,1.1,72,0.00,,,0.00,425.00,VWS V14.01,2013-06-19 18:25:00,
2013-06-19 14:30:00,87.8,78.0,29.92,North,6,1.1,2.2,73,0.00,,,0.00,1004.00,VWS V14.01,2013-06-19 18:30:00,
2013-06-19 14:35:00,88.7,77.6,29.92,NNW,348,3.3,3.3,70,0.00,,,0.00,1028.00,VWS V14.01,2013-06-19 18:35:00,
2013-06-19 14:40:00,88.2,76.4,29.91,NNW,343,0.0,0.0,68,0.00,,,0.00,350.00,VWS V14.01,2013-06-19 18:40:00,
2013-06-19 14:45:00,87.6,78.2,29.92,NNE,14,2.2,4.4,74,0.00,,,0.00,974.00,VWS V14.01,2013-06-19 18:45:00,
2013-06-19 14:50:00,85.9,77.9,29.93,North,6,3.3,3.3,77,0.00,,,0.00,141.00,VWS V14.01,2013-06-19 18:50:00,
2013-06-19 14:55:00,84.3,77.1,29.93,North,6,7.7,13.2,79,0.00,,,0.00,37.00,VWS V14.01,2013-06-19 18:55:00,
2013-06-19 15:00:00,82.3,75.2,29.93,East,90,1.1,6.6,79,0.00,,,0.00,60.00,VWS V14.01,2013-06-19 19:00:00,
2013-06-19 15:05:00,79.9,74.0,29.94,NNE,22,3.3,7.7,82,0.00,,,0.00,100.00,VWS V14.01,2013-06-19 19:05:00,
2013-06-19 15:10:00,78.9,74.4,29.93,North,6,4.4,4.4,86,0.00,,,0.00,111.00,VWS V14.01,2013-06-19 19:10:00,
2013-06-19 15:15:00,78.4,74.3,29.95,WNW,298,0.0,0.0,87,0.00,,,0.00,16.00,VWS V14.01,2013-06-19 19:15:00,
2013-06-19 15:20:00,78.1,74.2,29.95,WNW,294,1.1,1.1,88,0.03,,,0.03,37.00,VWS V14.01,2013-06-19 19:20:00,
2013-06-19 15:25:00,76.8,73.4,29.94,NNE,23,7.7,7.7,89,0.15,,,0.15,49.00,VWS V14.01,2013-06-19 19:25:00,
2013-06-19 15:30:00,75.6,73.1,29.94,NNW,343,3.3,6.6,92,0.16,,,0.16,35.00,VWS V14.01,2013-06-19 19:30:00,
2013-06-19 15:35:00,74.9,72.8,29.94,North,11,2.2,2.2,93,0.17,,,0.17,21.00,VWS V14.01,2013-06-19 19:35:00,
2013-06-19 15:40:00,74.6,72.7,29.94,NNE,23,9.9,9.9,94,0.22,,,0.22,33.00,VWS V14.01,2013-06-19 19:40:00,
2013-06-19 15:45:00,74.2,72.4,29.94,NNE,12,1.1,2.2,94,0.26,,,0.26,35.00,VWS V14.01,2013-06-19 19:45:00,
2013-06-19 15:50:00,74.1,72.5,29.95,NNE,29,4.4,7.7,95,0.31,,,0.31,33.00,VWS V14.01,2013-06-19 19:50:00,
2013-06-19 15:55:00,73.9,72.4,29.95,NNE,23,0.0,0.0,95,0.41,,,0.41,28.00,VWS V14.01,2013-06-19 19:55:00,
2013-06-19 16:00:00,74.1,72.8,29.96,NNE,15,0.0,0.0,96,0.47,,,0.47,25.00,VWS V14.01,2013-06-19 20:00:00,
2013-06-19 16:05:00,74.2,72.9,29.96,NNE,15,0.0,0.0,96,0.51,,,0.51,18.00,VWS V14.01,2013-06-19 20:05:00,
2013-06-19 16:10:00,74.1,72.8,29.96,NNE,16,0.0,0.0,96,0.60,,,0.60,12.00,VWS V14.01,2013-06-19 20:10:00,
2013-06-19 16:15:00,74.1,72.8,29.96,West,263,0.0,0.0,96,0.62,,,0.62,18.00,VWS V14.01,2013-06-19 20:15:00,
2013-06-19 16:20:00,74.1,72.8,29.96,SSE,154,0.0,0.0,96,0.61,,,0.62,19.00,VWS V14.01,2013-06-19 20:20:00,
2013-06-19 16:25:00,74.2,73.2,29.97,SSE,154,0.0,0.0,97,0.47,,,0.62,11.00,VWS V14.01,2013-06-19 20:25:00,
2013-06-19 16:30:00,74.2,73.3,29.96,SE,130,0.0,0.0,97,0.46,,,0.62,32.00,VWS V14.01,2013-06-19 20:30:00,
2013-06-19 16:35:00,74.1,73.2,29.96,SSE,155,1.1,1.1,97,0.46,,,0.63,51.00,VWS V14.01,2013-06-19 20:35:00,
2013-06-19 16:40:00,74.1,73.2,29.96,SSE,149,0.0,0.0,97,0.42,,,0.64,49.00,VWS V14.01,2013-06-19 20:40:00,
2013-06-19 16:45:00,74.2,73.3,29.96,SSE,167,0.0,0.0,97,0.38,,,0.64,56.00,VWS V14.01,2013-06-19 20:45:00,
2013-06-19 16:50:00,74.6,73.7,29.96,SSE,167,0.0,0.0,97,0.33,,,0.64,100.00,VWS V14.01,2013-06-19 20:50:00,
2013-06-19 16:55:00,74.7,73.8,29.96,SSE,164,0.0,0.0,97,0.24,,,0.64,113.00,VWS V14.01,2013-06-19 20:55:00,
2013-06-19 17:00:00,74.8,73.8,29.95,SSE,149,0.0,0.0,97,0.17,,,0.64,121.00,VWS V14.01,2013-06-19 21:00:00,
2013-06-19 17:05:00,74.8,73.9,29.96,SSE,149,0.0,0.0,97,0.13,,,0.64,109.00,VWS V14.01,2013-06-19 21:05:00,
2013-06-19 17:10:00,74.9,74.1,29.95,SSE,149,0.0,0.0,97,0.05,,,0.64,188.00,VWS V14.01,2013-06-19 21:10:00,
2013-06-19 17:15:00,75.2,74.2,29.95,SSE,149,0.0,0.0,97,0.02,,,0.64,297.00,VWS V14.01,2013-06-19 21:15:00,
2013-06-19 17:20:00,75.4,74.8,29.95,SSE,149,0.0,0.0,98,0.02,,,0.64,329.00,VWS V14.01,2013-06-19 21:20:00,
2013-06-19 17:25:00,75.2,74.3,29.95,SSE,149,0.0,0.0,97,0.02,,,0.64,156.00,VWS V14.01,2013-06-19 21:25:00,
2013-06-19 17:30:00,75.1,74.2,29.95,SSE,155,0.0,0.0,97,0.02,,,0.64,100.00,VWS V14.01,2013-06-19 21:30:00,
2013-06-19 17:35:00,75.3,74.8,29.96,SSE,155,0.0,0.0,98,0.01,,,0.64,70.00,VWS V14.01,2013-06-19 21:35:00,
2013-06-19 17:40:00,75.2,74.2,29.96,SSE,155,0.0,0.0,97,0.00,,,0.64,56.00,VWS V14.01,2013-06-19 21:40:00,
2013-06-19 17:45:00,75.2,74.2,29.96,SSE,155,0.0,0.0,97,0.00,,,0.64,42.00,VWS V14.01,2013-06-19 21:45:00,
2013-06-19 17:50:00,75.2,74.2,29.95,SSE,155,0.0,0.0,97,0.00,,,0.64,35.00,VWS V14.01,2013-06-19 21:50:00,
2013-06-19 17:55:00,75.2,74.2,29.96,SSE,155,0.0,0.0,97,0.00,,,0.64,23.00,VWS V14.01,2013-06-19 21:55:00,
2013-06-19 18:00:00,75.1,74.2,29.97,NE,36,0.0,0.0,97,0.00,,,0.64,12.00,VWS V14.01,2013-06-19 22:00:00,
2013-06-19 18:05:00,74.9,74.1,29.97,NE,36,0.0,0.0,97,0.00,,,0.64,11.00,VWS V14.01,2013-06-19 22:05:00,
2013-06-19 18:10:00,74.9,74.1,29.98,NE,36,0.0,0.0,97,0.00,,,0.64,9.00,VWS V14.01,2013-06-19 22:10:00,
2013-06-19 18:15:00,74.8,73.8,29.97,NE,36,0.0,0.0,97,0.00,,,0.64,5.00,VWS V14.01,2013-06-19 22:15:00,
2013-06-19 18:20:00,74.8,73.8,29.97,NE,36,0.0,0.0,97,0.00,,,0.64,5.00,VWS V14.01,2013-06-19 22:20:00,
2013-06-19 18:25:00,74.8,73.8,29.97,NE,36,0.0,0.0,97,0.00,,,0.64,5.00,VWS V14.01,2013-06-19 22:25:00,
2013-06-19 18:30:00,74.8,73.8,29.97,NE,36,0.0,0.0,97,0.00,,,0.64,7.00,VWS V14.01,2013-06-19 22:30:00,
2013-06-19 18:35:00,74.6,73.7,29.96,NE,36,0.0,0.0,97,0.01,,,0.65,12.00,VWS V14.01,2013-06-19 22:35:00,
2013-06-19 18:40:00,74.7,73.8,29.96,NE,36,0.0,0.0,97,0.02,,,0.66,30.00,VWS V14.01,2013-06-19 22:40:00,
2013-06-19 18:45:00,74.9,74.1,29.94,NE,36,0.0,0.0,97,0.03,,,0.67,83.00,VWS V14.01,2013-06-19 22:45:00,
2013-06-19 18:50:00,75.1,74.2,29.95,NNE,13,0.0,0.0,97,0.04,,,0.68,109.00,VWS V14.01,2013-06-19 22:50:00,
2013-06-19 18:55:00,75.2,74.2,29.95,NNE,23,0.0,0.0,97,0.05,,,0.69,95.00,VWS V14.01,2013-06-19 22:55:00,
2013-06-19 19:00:00,75.2,74.7,29.95,NNE,23,0.0,0.0,98,0.05,,,0.69,113.00,VWS V14.01,2013-06-19 23:00:00,
2013-06-19 19:05:00,75.3,74.8,29.95,NE,37,0.0,0.0,98,0.05,,,0.69,130.00,VWS V14.01,2013-06-19 23:05:00,
2013-06-19 19:10:00,75.6,74.9,29.95,NNE,19,0.0,1.1,98,0.05,,,0.69,102.00,VWS V14.01,2013-06-19 23:10:00,
2013-06-19 19:15:00,74.7,73.8,29.95,NNE,29,0.0,0.0,97,0.05,,,0.69,72.00,VWS V14.01,2013-06-19 23:15:00,
2013-06-19 19:20:00,74.2,73.3,29.96,NNE,29,0.0,0.0,97,0.05,,,0.69,44.00,VWS V14.01,2013-06-19 23:20:00,
2013-06-19 19:25:00,74.2,73.3,29.96,NNE,29,0.0,0.0,97,0.05,,,0.69,25.00,VWS V14.01,2013-06-19 23:25:00,
2013-06-19 19:30:00,74.2,73.3,29.97,NNE,30,0.0,0.0,97,0.05,,,0.69,19.00,VWS V14.01,2013-06-19 23:30:00,
2013-06-19 19:35:00,74.1,73.4,29.98,NNE,29,0.0,0.0,98,0.04,,,0.69,16.00,VWS V14.01,2013-06-19 23:35:00,
2013-06-19 19:40:00,74.2,73.6,29.98,NNE,29,0.0,0.0,98,0.04,,,0.69,19.00,VWS V14.01,2013-06-19 23:40:00,
2013-06-19 19:45:00,74.2,73.7,29.98,NNE,29,0.0,0.0,98,0.02,,,0.69,23.00,VWS V14.01,2013-06-19 23:45:00,
2013-06-19 19:50:00,74.1,73.4,29.98,NNE,29,0.0,0.0,98,0.01,,,0.69,21.00,VWS V14.01,2013-06-19 23:50:00,
2013-06-19 19:55:00,74.1,73.4,29.98,NNE,29,0.0,0.0,98,0.00,,,0.69,16.00,VWS V14.01,2013-06-19 23:55:00,
2013-06-19 20:00:00,74.2,73.6,29.98,NNE,29,0.0,0.0,98,0.00,,,0.69,12.00,VWS V14.01,2013-06-20 00:00:00,
2013-06-19 20:05:00,74.1,73.4,29.99,NNE,29,0.0,0.0,98,0.00,,,0.69,7.00,VWS V14.01,2013-06-20 00:05:00,
2013-06-19 20:10:00,74.1,73.4,29.99,NNE,29,0.0,0.0,98,0.00,,,0.69,0.00,VWS V14.01,2013-06-20 00:10:00,
2013-06-19 20:15:00,74.1,73.4,30.00,NNE,29,0.0,0.0,98,0.00,,,0.69,0.00,VWS V14.01,2013-06-20 00:15:00,
2013-06-19 20:20:00,74.1,73.4,30.00,NNE,29,0.0,0.0,98,0.00,,,0.69,0.00,VWS V14.01,2013-06-20 00:20:00,
2013-06-19 20:25:00,73.8,73.2,30.01,NNE,29,0.0,0.0,98,0.00,,,0.69,0.00,VWS V14.01,2013-06-20 00:25:00,
2013-06-19 20:30:00,73.9,73.3,30.01,NNE,29,0.0,0.0,98,0.00,,,0.69,0.00,VWS V14.01,2013-06-20 00:30:00,
2013-06-19 20:35:00,73.9,73.3,30.01,NNE,29,0.0,0.0,98,0.00,,,0.69,0.00,VWS V14.01,2013-06-20 00:35:00,
2013-06-19 20:40:00,74.1,73.4,30.01,NNE,29,0.0,0.0,98,0.00,,,0.69,0.00,VWS V14.01,2013-06-20 00:40:00,
2013-06-19 20:45:00,73.9,73.3,30.01,NNE,29,0.0,0.0,98,0.00,,,0.69,0.00,VWS V14.01,2013-06-20 00:45:00,
2013-06-19 20:50:00,73.8,73.2,30.01,NNE,29,0.0,0.0,98,0.00,,,0.69,0.00,VWS V14.01,2013-06-20 00:50:00,
2013-06-19 20:55:00,73.8,73.2,30.01,NNE,29,0.0,0.0,98,0.00,,,0.69,0.00,VWS V14.01,2013-06-20 00:55:00,
2013-06-19 21:00:00,73.9,73.3,30.00,NNE,29,0.0,0.0,98,0.00,,,0.69,0.00,VWS V14.01,2013-06-20 01:00:00,
2013-06-19 21:05:00,73.9,73.3,30.00,NNE,29,0.0,0.0,98,0.00,,,0.69,0.00,VWS V14.01,2013-06-20 01:05:00,
2013-06-19 21:10:00,73.8,73.2,30.00,NNE,29,0.0,0.0,98,0.00,,,0.69,0.00,VWS V14.01,2013-06-20 01:10:00,
2013-06-19 21:14:00,73.8,73.2,30.00,NNE,29,0.0,0.0,98,0.01,,,0.70,0.00,VWS V14.01,2013-06-20 01:14:00,
2013-06-19 21:19:00,73.9,73.3,30.00,NNE,29,0.0,0.0,98,0.01,,,0.70,0.00,VWS V14.01,2013-06-20 01:19:00,
2013-06-19 21:24:00,73.9,73.3,30.00,NNE,29,0.0,0.0,98,0.01,,,0.70,0.00,VWS V14.01,2013-06-20 01:24:00,
2013-06-19 21:29:00,73.9,73.3,30.00,NNE,29,0.0,0.0,98,0.01,,,0.70,0.00,VWS V14.01,2013-06-20 01:29:00,
2013-06-19 21:34:00,73.9,73.3,30.01,NNE,29,0.0,0.0,98,0.01,,,0.70,0.00,VWS V14.01,2013-06-20 01:34:00,
2013-06-19 21:39:00,73.8,73.2,30.01,NNE,29,0.0,0.0,98,0.02,,,0.71,0.00,VWS V14.01,2013-06-20 01:39:00,
2013-06-19 21:44:00,73.9,73.3,30.01,NNE,29,0.0,0.0,98,0.02,,,0.71,0.00,VWS V14.01,2013-06-20 01:44:00,
2013-06-19 21:49:00,74.1,73.4,30.01,NNE,29,0.0,0.0,98,0.02,,,0.71,0.00,VWS V14.01,2013-06-20 01:49:00,
2013-06-19 21:54:00,74.1,73.4,30.01,NNE,29,0.0,0.0,98,0.02,,,0.71,0.00,VWS V14.01,2013-06-20 01:54:00,
2013-06-19 21:59:00,74.1,73.4,30.01,NNE,29,0.0,1.1,98,0.02,,,0.71,0.00,VWS V14.01,2013-06-20 01:59:00,
2013-06-19 22:04:00,73.9,73.3,30.01,NNE,29,0.0,0.0,98,0.02,,,0.71,0.00,VWS V14.01,2013-06-20 02:04:00,
2013-06-19 22:09:00,74.1,73.4,30.01,NNE,29,0.0,0.0,98,0.02,,,0.71,0.00,VWS V14.01,2013-06-20 02:09:00,
2013-06-19 22:14:00,74.1,73.4,30.01,NNE,29,0.0,1.1,98,0.01,,,0.71,0.00,VWS V14.01,2013-06-20 02:14:00,
2013-06-19 22:19:00,74.1,73.4,30.02,NNE,29,0.0,0.0,98,0.01,,,0.71,0.00,VWS V14.01,2013-06-20 02:19:00,
2013-06-19 22:24:00,74.1,73.4,30.03,NNE,29,0.0,0.0,98,0.01,,,0.71,0.00,VWS V14.01,2013-06-20 02:24:00,
2013-06-19 22:29:00,74.1,73.4,30.03,NNE,29,0.0,0.0,98,0.01,,,0.71,0.00,VWS V14.01,2013-06-20 02:29:00,
2013-06-19 22:34:00,74.2,73.6,30.03,NNE,29,0.0,0.0,98,0.01,,,0.71,0.00,VWS V14.01,2013-06-20 02:34:00,
2013-06-19 22:39:00,74.1,73.4,30.03,NNE,29,0.0,0.0,98,0.00,,,0.71,0.00,VWS V14.01,2013-06-20 02:39:00,
2013-06-19 22:44:00,74.1,73.4,30.03,NNE,29,0.0,0.0,98,0.00,,,0.71,0.00,VWS V14.01,2013-06-20 02:44:00,
2013-06-19 22:49:00,74.1,73.4,30.04,NNE,29,0.0,0.0,98,0.00,,,0.71,0.00,VWS V14.01,2013-06-20 02:49:00,
2013-06-19 22:54:00,74.1,73.4,30.04,NNE,29,0.0,0.0,98,0.00,,,0.71,0.00,VWS V14.01,2013-06-20 02:54:00,
2013-06-19 22:59:00,74.1,73.4,30.04,NNE,29,0.0,0.0,98,0.00,,,0.71,0.00,VWS V14.01,2013-06-20 02:59:00,
2013-06-19 23:04:00,74.2,73.7,30.03,NNE,29,0.0,0.0,98,0.00,,,0.71,0.00,VWS V14.01,2013-06-20 03:04:00,
2013-06-19 23:09:00,74.2,73.7,30.04,NNE,29,0.0,0.0,98,0.00,,,0.71,0.00,VWS V14.01,2013-06-20 03:09:00,
2013-06-19 23:14:00,74.2,73.6,30.04,NNE,29,0.0,0.0,98,0.00,,,0.71,0.00,VWS V14.01,2013-06-20 03:14:00,
2013-06-19 23:19:00,74.2,73.7,30.04,NNE,29,0.0,0.0,98,0.00,,,0.71,0.00,VWS V14.01,2013-06-20 03:19:00,
2013-06-19 23:24:00,74.2,73.6,30.03,NNE,29,0.0,0.0,98,0.00,,,0.71,0.00,VWS V14.01,2013-06-20 03:24:00,
2013-06-19 23:29:00,74.2,73.6,30.03,NNE,29,0.0,0.0,98,0.00,,,0.71,0.00,VWS V14.01,2013-06-20 03:29:00,
2013-06-19 23:34:00,74.2,73.6,30.03,NNE,29,0.0,0.0,98,0.01,,,0.72,0.00,VWS V14.01,2013-06-20 03:34:00,
2013-06-19 23:39:00,74.2,73.7,30.03,NNE,29,0.0,0.0,98,0.01,,,0.72,0.00,VWS V14.01,2013-06-20 03:39:00,
2013-06-19 23:44:00,74.2,73.6,30.03,NNE,29,0.0,0.0,98,0.01,,,0.72,0.00,VWS V14.01,2013-06-20 03:44:00,
2013-06-19 23:49:00,74.2,73.6,30.03,NNE,29,0.0,0.0,98,0.01,,,0.72,0.00,VWS V14.01,2013-06-20 03:49:00,
2013-06-19 23:54:00,74.2,73.7,30.02,NNE,29,0.0,0.0,98,0.01,,,0.72,0.00,VWS V14.01,2013-06-20 03:54:00,
2013-06-19 23:59:00,74.2,73.6,30.02,NNE,29,0.0,0.0,98,0.01,,,0.72,0.00,VWS V14.01,2013-06-20 03:59:00,